Time,TemperatureF,DewpointF,PressureIn,WindDirection,WindDirectionDegrees,WindSpeedMPH,WindSpeedGustMPH,Humidity,HourlyPrecipIn,Conditions,Clouds,dailyrainin,SoftwareType,DateUTC
2013-02-27 09:22:00,36.0,35.0,-100.00,SSW,195,12.0,19.0,95,9.61,,,-99.99,,2013-02-27 14:22:00,
2013-02-27 09:32:00,36.0,34.0,-100.00,SSW,195,12.0,17.0,94,9.61,,,-99.99,,2013-02-27 14:32:00,
2013-02-27 09:42:00,36.0,34.0,-100.00,SSW,200,10.0,21.0,93,9.61,,,-99.99,,2013-02-27 14:42:00,
2013-02-27 09:53:00,36.0,34.0,-100.00,SSW,205,12.0,21.0,92,10.20,,,-99.99,,2013-02-27 14:53:00,
2013-02-27 10:02:00,36.0,34.0,-100.00,SSW,200,14.0,21.0,91,10.75,,,-99.99,,2013-02-27 15:02:00,
2013-02-27 10:12:00,36.0,33.0,-100.00,SSW,200,17.0,21.0,91,10.75,,,-99.99,,2013-02-27 15:12:00,
2013-02-27 10:22:00,36.0,33.0,-100.00,SSW,210,14.0,20.0,92,12.44,,,-99.99,,2013-02-27 15:22:00,
2013-02-27 10:32:00,36.0,33.0,-100.00,SSW,195,14.0,21.0,91,12.44,,,-99.99,,2013-02-27 15:32:00,
2013-02-27 10:42:00,36.0,33.0,-100.00,SSW,195,12.0,22.0,92,11.89,,,-99.99,,2013-02-27 15:42:00,
2013-02-27 10:52:00,35.0,33.0,-100.00,SSW,205,14.0,22.0,91,13.03,,,-99.99,,2013-02-27 15:52:00,
2013-02-27 11:02:00,35.0,33.0,-100.00,SSW,210,16.0,24.0,91,11.89,,,-99.99,,2013-02-27 16:02:00,
2013-02-27 11:12:00,35.0,33.0,-100.00,SSW,210,17.0,25.0,91,13.03,,,-99.99,,2013-02-27 16:12:00,
2013-02-27 11:22:00,35.0,33.0,-100.00,SSW,210,15.0,21.0,92,13.03,,,-99.99,,2013-02-27 16:22:00,
2013-02-27 11:32:00,35.0,33.0,-100.00,SSW,210,12.0,23.0,93,10.75,,,-99.99,,2013-02-27 16:32:00,
2013-02-27 11:42:00,35.0,33.0,-100.00,SSW,210,16.0,23.0,93,9.61,,,-99.99,,2013-02-27 16:42:00,
2013-02-27 11:52:00,35.0,33.0,-100.00,SSW,200,15.0,21.0,93,9.61,,,-99.99,,2013-02-27 16:52:00,
2013-02-27 12:02:00,35.0,33.0,-100.00,SSW,210,16.0,24.0,93,9.61,,,-99.99,,2013-02-27 17:02:00,
2013-02-27 12:11:00,35.0,33.0,-100.00,SSW,200,13.0,21.0,93,9.06,,,-99.99,,2013-02-27 17:11:00,
2013-02-27 12:21:00,34.0,33.0,-100.00,SSW,200,11.0,22.0,93,5.08,,,-99.99,,2013-02-27 17:21:00,
2013-02-27 12:32:00,34.0,32.0,-100.00,SSW,205,15.0,21.0,93,7.91,,,-99.99,,2013-02-27 17:32:00,
2013-02-27 12:42:00,34.0,32.0,-100.00,SSW,205,17.0,22.0,94,1.10,,,-99.99,,2013-02-27 17:42:00,
2013-02-27 12:52:00,34.0,33.0,-100.00,SSW,205,13.0,23.0,95,11.89,,,-99.99,,2013-02-27 17:52:00,
2013-02-27 13:02:00,33.0,32.0,-100.00,SSW,200,16.0,23.0,95,9.61,,,-99.99,,2013-02-27 18:02:00,
2013-02-27 13:11:00,34.0,33.0,-100.00,SSW,200,16.0,20.0,96,15.28,,,-99.99,,2013-02-27 18:11:00,
2013-02-27 13:22:00,33.0,33.0,-100.00,SSW,200,16.0,19.0,96,15.28,,,-99.99,,2013-02-27 18:22:00,
2013-02-27 13:32:00,33.0,32.0,-100.00,SSW,205,12.0,19.0,96,1.10,,,-99.99,,2013-02-27 18:32:00,
2013-02-27 13:42:00,34.0,33.0,-100.00,SSW,205,14.0,19.0,96,7.91,,,-99.99,,2013-02-27 18:42:00,
2013-02-27 13:52:00,34.0,33.0,-100.00,SSW,195,11.0,18.0,96,7.36,,,-99.99,,2013-02-27 18:52:00,
2013-02-27 14:02:00,34.0,33.0,-100.00,South,190,11.0,20.0,95,3.94,,,-99.99,,2013-02-27 19:02:00,
2013-02-27 14:12:00,35.0,33.0,-100.00,SSW,200,9.0,23.0,94,10.20,,,-99.99,,2013-02-27 19:12:00,
2013-02-27 14:21:00,35.0,33.0,-100.00,SSW,195,14.0,22.0,93,3.94,,,-99.99,,2013-02-27 19:21:00,
2013-02-27 14:32:00,35.0,33.0,-100.00,SSW,210,13.0,22.0,93,3.39,,,-99.99,,2013-02-27 19:32:00,
2013-02-27 14:42:00,35.0,33.0,-100.00,SSW,205,14.0,19.0,93,2.83,,,-99.99,,2013-02-27 19:42:00,
2013-02-27 14:52:00,35.0,33.0,-100.00,SSW,195,11.0,19.0,93,3.39,,,-99.99,,2013-02-27 19:52:00,
2013-02-27 15:02:00,35.0,33.0,-100.00,SSW,200,16.0,23.0,92,7.36,,,-99.99,,2013-02-27 20:02:00,
2013-02-27 15:12:00,35.0,33.0,-100.00,SSW,205,13.0,23.0,92,4.53,,,-99.99,,2013-02-27 20:12:00,
2013-02-27 15:22:00,34.0,33.0,-100.00,SSW,205,12.0,19.0,93,5.67,,,-99.99,,2013-02-27 20:22:00,
2013-02-27 15:32:00,34.0,33.0,-100.00,SSW,200,13.0,22.0,93,7.36,,,-99.99,,2013-02-27 20:32:00,
2013-02-27 15:42:00,34.0,33.0,-100.00,SSW,200,13.0,22.0,93,5.08,,,-99.99,,2013-02-27 20:42:00,
2013-02-27 15:52:00,34.0,33.0,-100.00,SSW,200,13.0,22.0,94,4.53,,,-99.99,,2013-02-27 20:52:00,
2013-02-27 16:02:00,34.0,33.0,-100.00,SSW,200,16.0,23.0,93,9.06,,,-99.99,,2013-02-27 21:02:00,
2013-02-27 16:11:00,35.0,33.0,-100.00,SSW,200,14.0,23.0,92,5.08,,,-99.99,,2013-02-27 21:11:00,
2013-02-27 16:22:00,34.0,32.0,-100.00,SSW,200,14.0,22.0,92,3.39,,,-99.99,,2013-02-27 21:22:00,
2013-02-27 16:32:00,34.0,32.0,-100.00,SSW,205,15.0,21.0,92,3.39,,,-99.99,,2013-02-27 21:32:00,
2013-02-27 16:42:00,34.0,32.0,-100.00,SSW,195,16.0,24.0,91,5.08,,,-99.99,,2013-02-27 21:42:00,
2013-02-27 16:52:00,34.0,32.0,-100.00,SSW,200,15.0,19.0,92,5.67,,,-99.99,,2013-02-27 21:52:00,
2013-02-27 17:02:00,34.0,32.0,-100.00,SSW,205,14.0,19.0,93,5.08,,,-99.99,,2013-02-27 22:02:00,
2013-02-27 17:11:00,34.0,32.0,-100.00,SSW,195,12.0,20.0,92,7.91,,,-99.99,,2013-02-27 22:11:00,
2013-02-27 17:21:00,34.0,32.0,-100.00,SSW,195,12.0,19.0,93,8.50,,,-99.99,,2013-02-27 22:21:00,
2013-02-27 17:32:00,34.0,32.0,-100.00,SSW,200,14.0,20.0,93,12.44,,,-99.99,,2013-02-27 22:32:00,
2013-02-27 17:42:00,34.0,32.0,-100.00,SSW,200,9.0,18.0,94,8.50,,,-99.99,,2013-02-27 22:42:00,
2013-02-27 17:51:00,33.0,32.0,-100.00,SSW,200,7.0,16.0,95,4.53,,,-99.99,,2013-02-27 22:51:00,
2013-02-27 18:01:00,33.0,32.0,-100.00,SSW,195,9.0,16.0,95,15.28,,,-99.99,,2013-02-27 23:01:00,
2013-02-27 18:11:00,33.0,32.0,-100.00,South,190,7.0,15.0,96,15.87,,,-99.99,,2013-02-27 23:11:00,
2013-02-27 18:21:00,33.0,32.0,-100.00,SSW,195,11.0,17.0,97,17.01,,,-99.99,,2013-02-27 23:21:00,
2013-02-27 18:32:00,33.0,32.0,-100.00,SSW,200,14.0,17.0,97,14.72,,,-99.99,,2013-02-27 23:32:00,
2013-02-27 18:42:00,33.0,32.0,-100.00,SSW,200,19.0,26.0,97,7.36,,,-99.99,,2013-02-27 23:42:00,
2013-02-27 18:52:00,33.0,32.0,-100.00,SSW,195,13.0,20.0,97,10.75,,,-99.99,,2013-02-27 23:52:00,
2013-02-27 19:02:00,33.0,32.0,-100.00,SSW,200,10.0,16.0,97,6.77,,,-99.99,,2013-02-28 00:02:00,
2013-02-27 19:12:00,33.0,32.0,-100.00,SSW,200,12.0,21.0,97,13.03,,,-99.99,,2013-02-28 00:12:00,
2013-02-27 19:21:00,33.0,32.0,-100.00,SSW,205,11.0,19.0,97,18.70,,,-99.99,,2013-02-28 00:21:00,
2013-02-27 19:32:00,33.0,32.0,-100.00,SSW,200,9.0,15.0,97,12.44,,,-99.99,,2013-02-28 00:32:00,
2013-02-27 19:42:00,32.0,32.0,-100.00,North,0,2.0,16.0,98,9.61,,,-99.99,,2013-02-28 00:42:00,
2013-02-27 19:52:00,32.0,32.0,-100.00,North,0,0.0,6.0,98,20.94,,,-99.99,,2013-02-28 00:52:00,
2013-02-27 20:01:00,32.0,32.0,-100.00,SSW,200,11.0,20.0,98,0.55,,,-99.99,,2013-02-28 01:01:00,
2013-02-27 20:11:00,32.0,32.0,-100.00,SSW,195,12.0,19.0,98,0.55,,,-99.99,,2013-02-28 01:11:00,
2013-02-27 20:22:00,32.0,32.0,-100.00,SSW,200,11.0,19.0,98,5.08,,,-99.99,,2013-02-28 01:22:00,
2013-02-27 20:32:00,32.0,32.0,-100.00,North,0,0.0,10.0,98,3.94,,,-99.99,,2013-02-28 01:32:00,
2013-02-27 20:42:00,32.0,32.0,-100.00,North,0,0.0,4.0,98,0.55,,,-99.99,,2013-02-28 01:42:00,
2013-02-27 20:52:00,32.0,32.0,-100.00,North,0,0.0,0.0,98,4.53,,,-99.99,,2013-02-28 01:52:00,
2013-02-27 21:01:00,32.0,32.0,-100.00,North,0,0.0,0.0,98,3.39,,,-99.99,,2013-02-28 02:01:00,
2013-02-27 21:11:00,32.0,32.0,-100.00,North,0,0.0,0.0,98,2.24,,,-99.99,,2013-02-28 02:11:00,
2013-02-27 21:22:00,32.0,32.0,-100.00,North,0,0.0,0.0,98,2.24,,,-99.99,,2013-02-28 02:22:00,
2013-02-27 21:32:00,32.0,32.0,-100.00,North,0,0.0,0.0,98,2.24,,,-99.99,,2013-02-28 02:32:00,
2013-02-27 21:41:00,32.0,32.0,-100.00,North,0,0.0,0.0,98,2.24,,,-99.99,,2013-02-28 02:41:00,
2013-02-27 21:52:00,32.0,32.0,-100.00,North,0,0.0,0.0,98,2.24,,,-99.99,,2013-02-28 02:52:00,
2013-02-27 22:02:00,32.0,31.0,-100.00,North,0,0.0,0.0,96,2.83,,,-99.99,,2013-02-28 03:02:00,
2013-02-27 22:11:00,32.0,31.0,-100.00,North,0,0.0,0.0,96,2.24,,,-99.99,,2013-02-28 03:11:00,
2013-02-27 22:21:00,32.0,31.0,-100.00,North,0,0.0,0.0,96,2.83,,,-99.99,,2013-02-28 03:21:00,
2013-02-27 22:32:00,32.0,31.0,-100.00,North,0,0.0,0.0,96,2.24,,,-99.99,,2013-02-28 03:32:00,
2013-02-27 22:42:00,32.0,31.0,-100.00,North,0,0.0,0.0,96,1.69,,,-99.99,,2013-02-28 03:42:00,
2013-02-27 22:52:00,32.0,31.0,-100.00,North,0,1.0,9.0,96,3.39,,,-99.99,,2013-02-28 03:52:00,
2013-02-27 23:02:00,32.0,31.0,-100.00,North,0,0.0,7.0,96,3.39,,,-99.99,,2013-02-28 04:02:00,
2013-02-27 23:11:00,32.0,31.0,-100.00,North,0,0.0,7.0,96,3.39,,,-99.99,,2013-02-28 04:11:00,
2013-02-27 23:22:00,32.0,31.0,-100.00,North,0,6.0,11.0,96,2.24,,,-99.99,,2013-02-28 04:22:00,
2013-02-27 23:32:00,32.0,31.0,-100.00,North,0,6.0,13.0,96,4.53,,,-99.99,,2013-02-28 04:32:00,
2013-02-27 23:42:00,32.0,31.0,-100.00,North,0,6.0,13.0,96,3.39,,,-99.99,,2013-02-28 04:42:00,
2013-02-27 23:52:00,32.0,31.0,-100.00,North,0,7.0,14.0,96,2.83,,,-99.99,,2013-02-28 04:52:00,